Aérodrome :
LOGIN :

S'inscrire | Disclaimer

   EN    FR    IT 

 










Légende :    VFR   VFR Marginal   IFR   IFR Intensif   IFR Très Intensif
Visi : 
Plafond : 
>= 8 km
>= 3000ft
5 à 8 km
1000 à 3000 ft
1500m à 5 km
500 à 1000 ft
800 à 1500m
200 à 500 ft
< 800m
< 200 ft
Symboles :   Orages  Brouillard  Fortes neiges  Fortes précipitations  Vent > 20 kt
SIGMETs :   Divers  Orages  Givrage  Turbulence  Onde Orograph.  Cendres Volcan.







- Altitude de l'aérodrome : 3 ft
- Code IATA : DHR


EHKD - Den Helder De Kooy

DERNIER METAR :
  • 231555Z AUTO 07007KT 9999 FEW180 16/09 Q1023 BLU 09006KT 9999 FEW030

METARs EXPIRÉS :
  • 231525Z AUTO 06007KT 030V090 9999 NCD 16/10 Q1023 BLU 09006KT 9999 FEW030
  • 231455Z AUTO 07008KT 040V100 9999 NCD 16/10 Q1023 BLU 09006KT 9999 FEW030
  • 231425Z AUTO 07006KT 030V110 9999 NCD 16/10 Q1023 BLU 09006KT 9999 FEW030
  • 231355Z AUTO 07007KT 040V100 9999 NCD 16/10 Q1024 BLU 09006KT 9999 FEW030
  • 231340Z AUTO 07007KT 040V100 7000 HZ NCD 16/10 Q1024 WHT 09006KT 9999 FEW030
  • 231336Z AUTO 06007KT 030V090 7000 HZ NCD 17/10 Q1024 WHT 09006KT 9999 SCT030
  • 231325Z AUTO 06006KT 9999 NCD 17/10 Q1024 BLU 09006KT 9999 SCT030
  • 231309Z AUTO 06005KT 020V100 9999 NCD 16/10 Q1024 BLU 09006KT 9999 SCT030

TAF TAF EHKD
Valide du 23 à 13h jusqu'au 24 à 01h UTC


231220Z 2313/2401 09005KT 9999 FEW030
BECMG 2400/2401 4000 BR
Pas de NOTAMs connus pour ce terrain.



MET'MAP, la Météo Aéronautique d'un coup d'oeil ! - Copyright ORBIFLY Décembre 2007 - Disclaimer

ORBIFLY MET'MAP TEAM :

Programmation & Développement : Alexandra Zaïnal
Conception & Développement : Baudouin d'Aumeries
Co-Programmation & Développement : Marc-Olivier Méhu
Soutien technique & logistique : Manuel Goepfert

Contact : metmap@orbifly.com




SOURCES & CREDITS :

   NOAA